createdAt,value
2019-02-09T00:01:38.196Z,26.90
2019-02-09T00:04:07.467Z,23.67
2019-02-09T00:06:36.676Z,24.20
2019-02-09T00:09:08.802Z,25.13
2019-02-09T00:11:38.163Z,22.70
2019-02-09T00:14:07.434Z,22.40
2019-02-09T00:16:36.733Z,22.80
2019-02-09T00:19:05.910Z,26.37
2019-02-09T00:21:35.330Z,23.63
2019-02-09T00:24:04.697Z,25.33
2019-02-09T00:26:33.876Z,24.63
2019-02-09T00:29:04.632Z,22.40
2019-02-09T00:31:33.941Z,21.83
2019-02-09T00:34:03.267Z,22.17
2019-02-09T00:36:32.599Z,20.83
2019-02-09T00:39:01.853Z,21.80
2019-02-09T00:41:31.151Z,20.47
2019-02-09T00:44:00.367Z,19.27
2019-02-09T00:46:29.948Z,20.90
2019-02-09T00:48:59.200Z,19.90
2019-02-09T00:51:28.594Z,20.90
2019-02-09T00:53:57.849Z,18.80
2019-02-09T00:56:27.163Z,18.70
2019-02-09T00:58:56.462Z,17.30
2019-02-09T01:01:25.694Z,19.50
2019-02-09T01:03:54.994Z,18.07
2019-02-09T01:06:24.191Z,17.60
2019-02-09T01:08:54.834Z,17.37
2019-02-09T01:11:24.082Z,17.90
2019-02-09T01:13:53.347Z,17.93
2019-02-09T01:16:22.489Z,17.90
2019-02-09T01:18:51.845Z,18.33
2019-02-09T01:21:21.120Z,17.50
2019-02-09T01:23:50.256Z,17.80
2019-02-09T01:26:19.529Z,17.67
2019-02-09T01:28:48.687Z,17.57
2019-02-09T01:31:17.867Z,15.77
2019-02-09T01:33:47.090Z,18.33
2019-02-09T01:36:16.346Z,17.43
2019-02-09T01:38:45.524Z,17.27
2019-02-09T01:41:14.754Z,18.63
2019-02-09T01:43:44.094Z,19.83
2019-02-09T01:46:13.252Z,17.23
2019-02-09T01:48:42.475Z,18.50
2019-02-09T01:51:11.822Z,16.93
2019-02-09T01:53:43.218Z,17.47
2019-02-09T01:56:12.438Z,19.07
2019-02-09T01:58:41.612Z,20.27
2019-02-09T02:01:10.908Z,19.10
2019-02-09T02:03:40.064Z,19.07
2019-02-09T02:06:09.315Z,19.30
2019-02-09T02:08:38.594Z,18.83
2019-02-09T02:11:07.848Z,18.13
2019-02-09T02:13:37.048Z,19.10
2019-02-09T02:16:06.491Z,21.47
2019-02-09T02:18:35.762Z,20.90
2019-02-09T02:21:05.007Z,18.87
2019-02-09T02:23:34.280Z,17.70
2019-02-09T02:26:03.555Z,19.10
2019-02-09T02:28:32.818Z,19.73
2019-02-09T02:31:02.081Z,19.77
2019-02-09T02:33:31.268Z,22.03
2019-02-09T02:36:00.495Z,18.87
2019-02-09T02:38:29.718Z,20.53
2019-02-09T02:40:59.009Z,22.00
2019-02-09T02:43:28.230Z,21.93
2019-02-09T02:45:57.514Z,20.07
2019-02-09T02:48:26.783Z,19.33
2019-02-09T02:50:56.038Z,20.37
2019-02-09T02:53:25.186Z,20.77
2019-02-09T02:55:54.451Z,20.90
2019-02-09T02:58:23.656Z,23.37
2019-02-09T03:00:52.925Z,20.27
2019-02-09T03:03:22.250Z,23.33
2019-02-09T03:05:51.603Z,21.00
2019-02-09T03:08:20.893Z,22.73
2019-02-09T03:10:50.224Z,20.90
2019-02-09T03:13:19.484Z,21.37
2019-02-09T03:15:49.069Z,29.00
2019-02-09T03:18:18.370Z,21.30
2019-02-09T03:20:48.898Z,86.70
2019-02-09T03:23:18.120Z,43.60
2019-02-09T03:25:47.322Z,21.43
2019-02-09T03:28:16.562Z,32.17
2019-02-09T03:30:48.672Z,22.50
2019-02-09T03:33:16.757Z,42.20
2019-02-09T03:35:45.976Z,84.17
2019-02-09T03:38:15.209Z,38.33
2019-02-09T03:40:44.489Z,25.80
2019-02-09T03:43:13.810Z,29.40
2019-02-09T03:45:43.055Z,23.03
2019-02-09T03:48:12.314Z,22.40
2019-02-09T03:50:41.466Z,21.53
2019-02-09T03:53:10.705Z,20.90
2019-02-09T03:55:39.882Z,22.87
2019-02-09T03:58:09.008Z,21.30
2019-02-09T04:00:38.403Z,20.40
2019-02-09T04:03:07.716Z,21.60
2019-02-09T04:05:37.046Z,20.83
2019-02-09T04:08:06.317Z,20.53
2019-02-09T04:10:35.627Z,20.33
2019-02-09T04:13:04.870Z,19.23
2019-02-09T04:15:34.250Z,21.43
2019-02-09T04:18:03.448Z,20.13
2019-02-09T04:20:32.709Z,18.43
2019-02-09T04:23:02.069Z,19.07
2019-02-09T04:25:31.330Z,18.97
2019-02-09T04:28:00.629Z,18.27
2019-02-09T04:30:31.508Z,18.13
2019-02-09T04:33:00.673Z,18.07
2019-02-09T04:35:32.241Z,18.80
2019-02-09T04:38:01.462Z,19.73
2019-02-09T04:40:31.791Z,20.43
2019-02-09T04:43:01.229Z,19.83
2019-02-09T04:45:30.718Z,20.30
2019-02-09T04:47:59.962Z,18.90
2019-02-09T04:50:29.236Z,20.07
2019-02-09T04:52:58.501Z,20.60
2019-02-09T04:55:27.793Z,21.17
2019-02-09T04:57:57.209Z,24.97
2019-02-09T05:00:28.258Z,19.63
2019-02-09T05:02:57.471Z,21.90
2019-02-09T05:05:27.555Z,19.23
2019-02-09T05:07:56.803Z,19.73
2019-02-09T05:10:26.447Z,19.43
2019-02-09T05:12:55.746Z,18.57
2019-02-09T05:15:24.981Z,18.40
2019-02-09T05:17:54.220Z,18.60
2019-02-09T05:20:24.798Z,18.37
2019-02-09T05:22:54.713Z,19.10
2019-02-09T05:25:24.229Z,20.13
2019-02-09T05:27:53.493Z,18.93
2019-02-09T05:30:24.491Z,19.33
2019-02-09T05:32:54.061Z,17.50
2019-02-09T05:35:23.356Z,17.87
2019-02-09T05:37:52.573Z,15.87
2019-02-09T05:40:22.508Z,16.00
2019-02-09T05:42:51.908Z,15.50
2019-02-09T05:45:23.119Z,15.47
2019-02-09T05:47:52.356Z,14.97
2019-02-09T05:50:21.774Z,14.77
2019-02-09T05:52:51.037Z,14.10
2019-02-09T05:55:20.528Z,14.30
2019-02-09T05:57:49.849Z,14.73
2019-02-09T06:00:29.056Z,14.63
2019-02-09T06:02:58.370Z,15.50
2019-02-09T06:05:27.682Z,17.70
2019-02-09T06:07:57.019Z,16.13
2019-02-09T06:10:26.232Z,16.60
2019-02-09T06:12:55.495Z,17.03
2019-02-09T06:15:25.316Z,15.60
2019-02-09T06:17:54.637Z,16.70
2019-02-09T06:20:24.931Z,17.00
2019-02-09T06:22:54.401Z,16.97
2019-02-09T06:25:24.045Z,16.47
2019-02-09T06:27:54.013Z,16.43
2019-02-09T06:30:24.988Z,16.27
2019-02-09T06:32:54.809Z,15.97
2019-02-09T06:35:24.280Z,16.70
2019-02-09T06:37:53.636Z,16.23
2019-02-09T06:40:23.640Z,15.87
2019-02-09T06:42:53.027Z,17.03
2019-02-09T06:45:23.123Z,16.20
2019-02-09T06:47:52.873Z,14.87
2019-02-09T06:50:25.315Z,14.47
2019-02-09T06:52:54.865Z,15.33
2019-02-09T06:55:25.645Z,15.83
2019-02-09T06:57:54.923Z,14.57
2019-02-09T07:00:24.393Z,13.03
2019-02-09T07:02:54.686Z,15.30
2019-02-09T07:05:24.092Z,15.67
2019-02-09T07:07:53.289Z,14.87
2019-02-09T07:10:23.638Z,16.80
2019-02-09T07:12:53.621Z,16.13
2019-02-09T07:15:27.449Z,17.63
2019-02-09T07:17:56.818Z,17.63
2019-02-09T07:20:26.107Z,17.53
2019-02-09T07:22:55.603Z,16.87
2019-02-09T07:25:25.280Z,16.50
2019-02-09T07:27:54.548Z,15.53
2019-02-09T07:30:28.850Z,16.20
2019-02-09T07:32:59.050Z,16.70
2019-02-09T07:35:28.443Z,16.63
2019-02-09T07:37:57.717Z,15.57
2019-02-09T07:40:27.060Z,16.00
2019-02-09T07:42:56.645Z,15.97
2019-02-09T07:45:26.867Z,16.60
2019-02-09T07:47:56.360Z,15.03
2019-02-09T07:50:26.194Z,16.23
2019-02-09T07:52:55.531Z,14.83
2019-02-09T07:55:24.930Z,14.43
2019-02-09T07:57:54.315Z,15.07
2019-02-09T08:00:25.698Z,14.47
2019-02-09T08:02:55.945Z,14.73
2019-02-09T08:05:27.047Z,14.70
2019-02-09T08:07:56.455Z,13.80
2019-02-09T08:10:27.890Z,11.53
2019-02-09T08:12:57.339Z,12.70
2019-02-09T08:15:28.276Z,11.23
2019-02-09T08:17:57.607Z,11.53
2019-02-09T08:20:27.929Z,11.37
2019-02-09T08:22:58.394Z,11.97
2019-02-09T08:25:29.475Z,12.13
2019-02-09T08:27:59.916Z,12.73
2019-02-09T08:30:34.816Z,12.50
2019-02-09T08:33:04.671Z,12.40
2019-02-09T08:35:36.115Z,11.03
2019-02-09T08:38:06.296Z,9.87
2019-02-09T08:40:35.547Z,8.30
2019-02-09T08:43:05.191Z,6.80
2019-02-09T08:45:34.495Z,8.43
2019-02-09T08:48:03.811Z,5.43
2019-02-09T08:50:35.518Z,4.27
2019-02-09T08:53:04.701Z,4.00
2019-02-09T08:55:33.984Z,3.40
2019-02-09T08:58:03.201Z,2.97
2019-02-09T09:00:36.245Z,3.33
2019-02-09T09:03:05.574Z,2.90
2019-02-09T09:05:34.949Z,3.10
2019-02-09T09:08:04.757Z,2.67
2019-02-09T09:10:34.062Z,2.97
2019-02-09T09:13:03.621Z,2.47
2019-02-09T09:15:35.855Z,2.90
2019-02-09T09:18:05.111Z,2.23
2019-02-09T09:20:36.151Z,2.67
2019-02-09T09:23:05.643Z,1.83
2019-02-09T09:25:34.871Z,2.23
2019-02-09T09:28:04.226Z,2.50
2019-02-09T09:30:34.271Z,3.23
2019-02-09T09:33:03.719Z,2.77
2019-02-09T09:35:32.997Z,2.50
2019-02-09T09:38:02.301Z,2.83
2019-02-09T09:40:33.967Z,2.50
2019-02-09T09:43:03.379Z,3.17
2019-02-09T09:45:34.487Z,2.57
2019-02-09T09:48:03.763Z,2.57
2019-02-09T09:50:33.055Z,2.43
2019-02-09T09:53:02.315Z,2.63
2019-02-09T09:55:31.598Z,2.53
2019-02-09T09:58:00.975Z,2.50
2019-02-09T10:00:30.309Z,2.20
2019-02-09T10:02:59.542Z,2.43
2019-02-09T10:05:28.872Z,2.63
2019-02-09T10:07:58.227Z,2.67
2019-02-09T10:10:27.439Z,2.10
2019-02-09T10:12:56.753Z,2.17
2019-02-09T10:15:26.464Z,2.40
2019-02-09T10:17:55.704Z,2.20
2019-02-09T10:20:25.552Z,2.40
2019-02-09T10:22:54.819Z,2.60
2019-02-09T10:25:24.119Z,2.03
2019-02-09T10:27:54.292Z,2.07
2019-02-09T10:30:25.445Z,2.20
2019-02-09T10:32:54.910Z,2.03
2019-02-09T10:35:24.288Z,2.10
2019-02-09T10:37:53.578Z,2.20
2019-02-09T10:40:27.733Z,2.60
2019-02-09T10:42:57.886Z,3.07
2019-02-09T10:45:28.975Z,4.07
2019-02-09T10:47:59.043Z,3.20
2019-02-09T10:50:33.284Z,3.97
2019-02-09T10:53:02.555Z,2.53
2019-02-09T10:55:31.886Z,2.17
2019-02-09T10:58:01.171Z,1.70
2019-02-09T11:00:34.339Z,1.80
2019-02-09T11:03:03.627Z,2.33
2019-02-09T11:05:32.823Z,1.97
2019-02-09T11:08:01.998Z,2.13
2019-02-09T11:10:31.221Z,2.23
2019-02-09T11:13:00.477Z,2.30
2019-02-09T11:15:29.881Z,2.10
2019-02-09T11:17:59.618Z,1.97
2019-02-09T11:20:28.925Z,1.97
2019-02-09T11:22:58.219Z,2.10
2019-02-09T11:25:27.487Z,2.27
2019-02-09T11:27:56.683Z,2.30
2019-02-09T11:30:26.934Z,2.50
2019-02-09T11:33:01.944Z,2.90
2019-02-09T11:35:27.224Z,2.27
2019-02-09T11:37:56.377Z,2.20
2019-02-09T11:40:25.723Z,1.80
2019-02-09T11:42:55.043Z,2.20
2019-02-09T11:45:26.768Z,2.23
2019-02-09T11:47:56.056Z,2.30
2019-02-09T11:50:25.419Z,1.90
2019-02-09T11:52:54.591Z,2.20
2019-02-09T11:55:23.894Z,2.37
2019-02-09T11:57:53.501Z,2.37
2019-02-09T12:00:27.722Z,84.73
2019-02-09T12:03:02.963Z,4.37
2019-02-09T12:05:28.004Z,2.37
2019-02-09T12:07:57.319Z,2.57
2019-02-09T12:10:26.990Z,2.37
2019-02-09T12:12:56.449Z,3.40
2019-02-09T12:15:28.294Z,3.03
2019-02-09T12:17:57.632Z,2.83
2019-02-09T12:20:26.921Z,2.60
2019-02-09T12:22:56.104Z,2.40
2019-02-09T12:25:28.436Z,2.70
2019-02-09T12:27:57.722Z,2.50
2019-02-09T12:30:28.915Z,2.20
2019-02-09T12:32:58.223Z,2.13
2019-02-09T12:35:27.771Z,2.10
2019-02-09T12:37:56.979Z,2.70
2019-02-09T12:40:28.332Z,3.00
2019-02-09T12:42:57.773Z,2.20
2019-02-09T12:45:27.238Z,1.80
2019-02-09T12:47:56.485Z,2.37
2019-02-09T12:50:26.644Z,2.47
2019-02-09T12:52:55.917Z,2.57
2019-02-09T12:55:25.425Z,2.30
2019-02-09T12:57:54.773Z,2.37
2019-02-09T13:00:28.915Z,2.33
2019-02-09T13:02:59.776Z,2.13
2019-02-09T13:05:29.248Z,2.20
2019-02-09T13:07:58.558Z,2.40
2019-02-09T13:10:27.819Z,2.40
2019-02-09T13:12:57.123Z,2.70
2019-02-09T13:15:27.837Z,2.50
2019-02-09T13:17:57.048Z,2.10
2019-02-09T13:20:27.279Z,2.30
2019-02-09T13:22:56.958Z,2.17
2019-02-09T13:25:26.259Z,2.43
2019-02-09T13:27:55.742Z,2.27
2019-02-09T13:30:27.834Z,2.20
2019-02-09T13:32:57.269Z,2.20
2019-02-09T13:35:26.455Z,2.77
2019-02-09T13:37:55.698Z,2.30
2019-02-09T13:40:25.039Z,2.50
2019-02-09T13:42:54.341Z,2.43
2019-02-09T13:45:35.297Z,2.63
2019-02-09T13:48:04.866Z,2.37
2019-02-09T13:50:34.844Z,2.00
2019-02-09T13:53:04.524Z,2.03
2019-02-09T13:55:33.843Z,2.53
2019-02-09T13:58:03.176Z,2.87
2019-02-09T14:00:33.071Z,2.50
2019-02-09T14:03:02.618Z,2.60
2019-02-09T14:05:31.891Z,2.40
2019-02-09T14:08:01.171Z,2.40
2019-02-09T14:10:30.588Z,2.40
2019-02-09T14:12:59.879Z,2.10
2019-02-09T14:15:31.544Z,2.60
2019-02-09T14:18:02.492Z,2.07
2019-02-09T14:20:31.853Z,2.07
2019-02-09T14:23:01.214Z,2.57
2019-02-09T14:25:30.760Z,2.40
2019-02-09T14:28:01.680Z,2.07
2019-02-09T14:30:32.682Z,2.40
2019-02-09T14:33:03.561Z,2.63
2019-02-09T14:35:33.045Z,2.20
2019-02-09T14:38:02.364Z,2.23
2019-02-09T14:40:32.462Z,2.20
2019-02-09T14:43:01.766Z,2.60
2019-02-09T14:45:36.636Z,2.23
2019-02-09T14:48:06.016Z,2.27
2019-02-09T14:50:35.338Z,2.60
2019-02-09T14:53:04.860Z,2.87
2019-02-09T14:55:35.372Z,2.13
2019-02-09T14:58:05.469Z,2.57
2019-02-09T15:00:43.110Z,2.67
2019-02-09T15:03:13.176Z,2.83
2019-02-09T15:05:44.186Z,1.90
2019-02-09T15:08:13.451Z,2.47
2019-02-09T15:10:42.771Z,2.30
2019-02-09T15:13:12.911Z,1.93
2019-02-09T15:16:07.541Z,2.50
2019-02-09T15:18:36.888Z,2.60
2019-02-09T15:21:06.595Z,2.30
2019-02-09T15:23:35.955Z,2.40
2019-02-09T15:26:06.056Z,2.37
2019-02-09T15:28:35.369Z,2.60
2019-02-09T15:31:05.089Z,2.53
2019-02-09T15:33:34.468Z,2.50
2019-02-09T15:36:03.819Z,2.40
2019-02-09T15:38:33.043Z,2.57
2019-02-09T15:41:02.336Z,2.80
2019-02-09T15:43:31.875Z,2.60
2019-02-09T15:46:01.090Z,2.60
2019-02-09T15:48:30.367Z,2.70
2019-02-09T15:50:59.649Z,2.37
2019-02-09T15:53:28.891Z,2.67
2019-02-09T15:55:58.197Z,3.10
2019-02-09T15:58:27.430Z,3.17
2019-02-09T16:00:56.730Z,3.20
2019-02-09T16:03:25.994Z,3.43
2019-02-09T16:05:55.238Z,3.17
2019-02-09T16:08:24.571Z,3.10
2019-02-09T16:10:53.832Z,3.67
2019-02-09T16:13:23.041Z,3.13
2019-02-09T16:15:52.695Z,3.80
2019-02-09T16:18:22.162Z,3.83
2019-02-09T16:20:51.411Z,3.43
2019-02-09T16:23:20.954Z,3.73
2019-02-09T16:25:50.333Z,3.33
2019-02-09T16:28:19.570Z,3.40
2019-02-09T16:30:48.823Z,2.90
2019-02-09T16:33:18.167Z,3.20
2019-02-09T16:35:47.475Z,3.37
2019-02-09T16:38:16.697Z,3.60
2019-02-09T16:40:45.969Z,3.93
2019-02-09T16:43:15.325Z,3.23
2019-02-09T16:45:44.737Z,4.00
2019-02-09T16:48:14.149Z,3.57
2019-02-09T16:50:43.472Z,3.80
2019-02-09T16:53:12.774Z,3.63
2019-02-09T16:55:42.014Z,3.83
2019-02-09T16:58:11.374Z,4.13
2019-02-09T17:00:42.471Z,3.87
2019-02-09T17:03:12.019Z,3.57
2019-02-09T17:05:41.981Z,3.57
2019-02-09T17:08:11.821Z,3.77
2019-02-09T17:10:41.085Z,3.40
2019-02-09T17:13:10.510Z,3.30
2019-02-09T17:15:39.728Z,3.30
2019-02-09T17:18:09.217Z,3.50
2019-02-09T17:20:38.628Z,3.67
2019-02-09T17:23:08.315Z,3.40
2019-02-09T17:25:37.647Z,4.20
2019-02-09T17:28:07.317Z,3.73
2019-02-09T17:30:36.836Z,3.50
2019-02-09T17:33:06.959Z,3.27
2019-02-09T17:35:36.181Z,3.97
2019-02-09T17:38:06.609Z,3.63
2019-02-09T17:40:41.872Z,3.60
2019-02-09T17:43:11.454Z,3.63
2019-02-09T17:45:55.416Z,4.40
2019-02-09T17:48:24.758Z,4.30
2019-02-09T17:50:54.086Z,4.83
2019-02-09T17:53:23.463Z,4.73
2019-02-09T17:55:52.784Z,6.83
2019-02-09T17:58:22.099Z,7.27
2019-02-09T18:00:55.415Z,6.10
2019-02-09T18:03:24.738Z,6.23
2019-02-09T18:05:54.012Z,5.20
2019-02-09T18:08:23.442Z,4.77
2019-02-09T18:10:52.735Z,5.20
2019-02-09T18:13:22.019Z,4.57
2019-02-09T18:15:51.300Z,4.40
2019-02-09T18:18:20.647Z,4.50
2019-02-09T18:20:49.804Z,4.20
2019-02-09T18:23:19.012Z,4.60
2019-02-09T18:25:48.306Z,4.60
2019-02-09T18:28:17.632Z,5.27
2019-02-09T18:30:47.086Z,5.63
2019-02-09T18:33:16.410Z,5.97
2019-02-09T18:35:45.680Z,7.43
2019-02-09T18:38:15.058Z,18.73
2019-02-09T18:40:44.446Z,40.43
2019-02-09T18:43:13.856Z,32.93
2019-02-09T18:45:43.118Z,16.67
2019-02-09T18:48:12.340Z,15.07
2019-02-09T18:50:41.647Z,10.33
2019-02-09T18:53:10.922Z,34.13
2019-02-09T18:55:40.158Z,34.87
2019-02-09T18:58:09.428Z,14.27
2019-02-09T19:00:39.196Z,7.90
2019-02-09T19:03:09.827Z,8.10
2019-02-09T19:05:39.124Z,12.30
2019-02-09T19:08:09.566Z,7.77
2019-02-09T19:10:38.973Z,8.87
2019-02-09T19:13:08.333Z,9.33
2019-02-09T19:15:37.709Z,10.00
2019-02-09T19:18:07.626Z,9.70
2019-02-09T19:20:46.063Z,10.23
2019-02-09T19:23:15.386Z,9.23
2019-02-09T19:25:44.658Z,8.63
2019-02-09T19:28:13.961Z,9.33
2019-02-09T19:30:43.365Z,8.23
2019-02-09T19:33:12.691Z,7.60
2019-02-09T19:35:42.011Z,7.20
2019-02-09T19:38:11.375Z,7.27
2019-02-09T19:40:40.709Z,7.73
2019-02-09T19:43:10.040Z,8.13
2019-02-09T19:45:39.362Z,8.27
2019-02-09T19:48:08.578Z,9.17
2019-02-09T19:50:37.967Z,8.47
2019-02-09T19:53:07.335Z,9.10
2019-02-09T19:55:36.684Z,12.43
2019-02-09T19:58:06.002Z,12.13
2019-02-09T20:00:37.651Z,10.97
2019-02-09T20:03:07.887Z,11.20
2019-02-09T20:05:37.218Z,11.07
2019-02-09T20:08:07.358Z,11.83
2019-02-09T20:10:37.699Z,10.43
2019-02-09T20:13:08.131Z,11.13
2019-02-09T20:15:37.448Z,13.67
2019-02-09T20:18:07.732Z,12.83
2019-02-09T20:20:36.987Z,11.00
2019-02-09T20:23:06.521Z,17.70
2019-02-09T20:25:35.734Z,9.80
2019-02-09T20:28:05.516Z,23.03
2019-02-09T20:30:35.630Z,10.40
2019-02-09T20:33:05.538Z,19.53
2019-02-09T20:35:34.815Z,9.80
2019-02-09T20:38:04.695Z,8.80
2019-02-09T20:40:38.930Z,9.10
2019-02-09T20:43:09.532Z,10.20
2019-02-09T20:45:38.805Z,29.17
2019-02-09T20:48:08.132Z,11.20
2019-02-09T20:50:37.468Z,13.67
2019-02-09T20:53:07.287Z,11.00
2019-02-09T20:55:36.455Z,35.03
2019-02-09T20:58:07.769Z,9.20
2019-02-09T21:00:37.055Z,9.03
2019-02-09T21:03:06.537Z,7.90
2019-02-09T21:05:36.910Z,8.37
2019-02-09T21:08:07.313Z,9.67
2019-02-09T21:10:36.953Z,9.17
2019-02-09T21:13:07.085Z,9.27
2019-02-09T21:15:36.381Z,9.43
2019-02-09T21:18:06.889Z,11.53
2019-02-09T21:20:36.553Z,9.40
2019-02-09T21:23:06.459Z,8.03
2019-02-09T21:25:37.566Z,7.93
2019-02-09T21:28:06.820Z,7.77
2019-02-09T21:30:36.046Z,8.70
2019-02-09T21:33:06.003Z,8.83
2019-02-09T21:35:35.387Z,9.13
2019-02-09T21:38:04.757Z,9.03
2019-02-09T21:40:34.135Z,8.73
2019-02-09T21:43:03.492Z,8.93
2019-02-09T21:45:32.675Z,8.40
2019-02-09T21:48:01.957Z,8.03
2019-02-09T21:50:33.072Z,7.47
2019-02-09T21:53:02.342Z,7.73
2019-02-09T21:55:31.591Z,7.63
2019-02-09T21:58:00.954Z,6.83
2019-02-09T22:00:33.307Z,8.10
2019-02-09T22:03:02.645Z,6.97
2019-02-09T22:05:31.846Z,8.60
2019-02-09T22:08:01.141Z,9.50
2019-02-09T22:10:33.928Z,9.50
2019-02-09T22:13:01.895Z,9.73
2019-02-09T22:15:38.345Z,9.00
2019-02-09T22:18:02.520Z,8.93
2019-02-09T22:20:31.992Z,11.70
2019-02-09T22:23:01.310Z,12.00
2019-02-09T22:25:31.081Z,12.17
2019-02-09T22:28:00.394Z,14.47
2019-02-09T22:30:30.133Z,13.93
2019-02-09T22:32:59.628Z,11.50
2019-02-09T22:35:29.728Z,10.03
2019-02-09T22:38:00.132Z,11.90
2019-02-09T22:40:31.792Z,10.30
2019-02-09T22:43:01.040Z,12.83
2019-02-09T22:45:30.319Z,14.83
2019-02-09T22:47:59.639Z,44.43
2019-02-09T22:50:40.144Z,21.13
2019-02-09T22:53:09.444Z,25.97
2019-02-09T22:55:38.788Z,20.67
2019-02-09T22:58:08.314Z,10.30
2019-02-09T23:00:54.242Z,11.57
2019-02-09T23:03:36.566Z,11.30
2019-02-09T23:06:35.757Z,11.13
2019-02-09T23:09:07.616Z,11.13
2019-02-09T23:11:36.884Z,18.33
2019-02-09T23:14:06.194Z,11.43
2019-02-09T23:16:35.473Z,10.77
2019-02-09T23:19:05.099Z,12.33
2019-02-09T23:21:34.353Z,14.43
2019-02-09T23:24:03.671Z,14.10
2019-02-09T23:26:38.815Z,14.83
2019-02-09T23:29:08.022Z,13.03
2019-02-09T23:31:37.310Z,11.63
2019-02-09T23:34:06.635Z,11.50
2019-02-09T23:36:36.030Z,12.50
2019-02-09T23:39:06.213Z,11.73
2019-02-09T23:41:35.492Z,11.50
2019-02-09T23:44:04.859Z,12.47
2019-02-09T23:46:34.078Z,13.00
2019-02-09T23:49:03.393Z,11.27
2019-02-09T23:51:32.749Z,14.27
2019-02-09T23:54:02.253Z,15.53
2019-02-09T23:56:31.528Z,12.13
2019-02-09T23:59:00.833Z,12.37
